sensor_id;sensor_type;location;lat;lon;timestamp;P1;durP1;ratioP1;P2;durP2;ratioP2
82760;SDS011;72498;42.022;21.444;2024-01-15T00:42:49;107.95;;;47.58;;
82760;SDS011;72498;42.022;21.444;2024-01-15T00:45:21;105.45;;;47.65;;
82760;SDS011;72498;42.022;21.444;2024-01-15T00:47:50;99.47;;;45.95;;
82760;SDS011;72498;42.022;21.444;2024-01-15T00:50:19;98.47;;;46.97;;
82760;SDS011;72498;42.022;21.444;2024-01-15T00:53:00;103.68;;;44.05;;
82760;SDS011;72498;42.022;21.444;2024-01-15T00:55:29;97.32;;;45.05;;
82760;SDS011;72498;42.022;21.444;2024-01-15T01:00:25;84.07;;;38.03;;
82760;SDS011;72498;42.022;21.444;2024-01-15T01:02:53;102.38;;;44.55;;
82760;SDS011;72498;42.022;21.444;2024-01-15T01:05:21;94.25;;;41.08;;
82760;SDS011;72498;42.022;21.444;2024-01-15T01:07:51;92.45;;;39.60;;
82760;SDS011;72498;42.022;21.444;2024-01-15T01:12:53;84.15;;;37.05;;
82760;SDS011;72498;42.022;21.444;2024-01-15T01:15:19;85.97;;;38.90;;
82760;SDS011;72498;42.022;21.444;2024-01-15T01:17:46;93.28;;;41.20;;
82760;SDS011;72498;42.022;21.444;2024-01-15T01:20:32;84.03;;;37.85;;
82760;SDS011;72498;42.022;21.444;2024-01-15T01:22:59;84.85;;;39.97;;
82760;SDS011;72498;42.022;21.444;2024-01-15T01:25:25;95.47;;;39.42;;
82760;SDS011;72498;42.022;21.444;2024-01-15T01:27:59;88.45;;;39.08;;
82760;SDS011;72498;42.022;21.444;2024-01-15T01:32:54;79.18;;;37.30;;
82760;SDS011;72498;42.022;21.444;2024-01-15T01:35:30;83.85;;;38.90;;
82760;SDS011;72498;42.022;21.444;2024-01-15T01:37:59;84.72;;;36.60;;
82760;SDS011;72498;42.022;21.444;2024-01-15T01:40:25;78.90;;;36.63;;
82760;SDS011;72498;42.022;21.444;2024-01-15T01:42:54;85.03;;;36.67;;
82760;SDS011;72498;42.022;21.444;2024-01-15T01:45:21;84.53;;;39.28;;
82760;SDS011;72498;42.022;21.444;2024-01-15T01:47:53;80.00;;;37.63;;
82760;SDS011;72498;42.022;21.444;2024-01-15T01:50:19;89.78;;;42.08;;
82760;SDS011;72498;42.022;21.444;2024-01-15T01:52:45;79.65;;;36.83;;
82760;SDS011;72498;42.022;21.444;2024-01-15T01:55:15;88.43;;;42.17;;
82760;SDS011;72498;42.022;21.444;2024-01-15T01:57:44;87.50;;;41.92;;
82760;SDS011;72498;42.022;21.444;2024-01-15T02:00:10;82.75;;;41.35;;
82760;SDS011;72498;42.022;21.444;2024-01-15T02:02:43;84.85;;;41.13;;
82760;SDS011;72498;42.022;21.444;2024-01-15T02:05:11;82.43;;;37.65;;
82760;SDS011;72498;42.022;21.444;2024-01-15T02:07:41;75.65;;;38.30;;
82760;SDS011;72498;42.022;21.444;2024-01-15T02:10:10;80.88;;;37.58;;
82760;SDS011;72498;42.022;21.444;2024-01-15T02:15:14;95.05;;;43.92;;
82760;SDS011;72498;42.022;21.444;2024-01-15T02:20:26;131.38;;;58.33;;
82760;SDS011;72498;42.022;21.444;2024-01-15T02:23:40;122.65;;;56.17;;
82760;SDS011;72498;42.022;21.444;2024-01-15T02:25:50;128.35;;;56.60;;
82760;SDS011;72498;42.022;21.444;2024-01-15T02:28:20;136.82;;;54.20;;
82760;SDS011;72498;42.022;21.444;2024-01-15T02:30:52;134.23;;;58.95;;
82760;SDS011;72498;42.022;21.444;2024-01-15T02:33:21;114.85;;;53.38;;
82760;SDS011;72498;42.022;21.444;2024-01-15T02:35:50;123.82;;;55.90;;
82760;SDS011;72498;42.022;21.444;2024-01-15T02:38:19;116.97;;;56.38;;
82760;SDS011;72498;42.022;21.444;2024-01-15T02:43:21;131.95;;;55.38;;
82760;SDS011;72498;42.022;21.444;2024-01-15T02:45:50;114.03;;;53.35;;
82760;SDS011;72498;42.022;21.444;2024-01-15T02:48:16;131.35;;;57.83;;
82760;SDS011;72498;42.022;21.444;2024-01-15T02:50:45;139.02;;;62.88;;
82760;SDS011;72498;42.022;21.444;2024-01-15T02:53:21;127.20;;;55.90;;
82760;SDS011;72498;42.022;21.444;2024-01-15T02:55:50;136.55;;;58.53;;
82760;SDS011;72498;42.022;21.444;2024-01-15T02:58:19;142.38;;;63.35;;
82760;SDS011;72498;42.022;21.444;2024-01-15T03:00:46;130.60;;;59.25;;
82760;SDS011;72498;42.022;21.444;2024-01-15T03:03:21;130.80;;;56.30;;
82760;SDS011;72498;42.022;21.444;2024-01-15T03:05:50;127.85;;;58.20;;
82760;SDS011;72498;42.022;21.444;2024-01-15T03:08:16;128.02;;;60.60;;
82760;SDS011;72498;42.022;21.444;2024-01-15T03:10:55;130.18;;;56.67;;
82760;SDS011;72498;42.022;21.444;2024-01-15T03:13:21;134.52;;;59.13;;
82760;SDS011;72498;42.022;21.444;2024-01-15T03:18:16;112.32;;;50.88;;
82760;SDS011;72498;42.022;21.444;2024-01-15T03:20:42;119.07;;;53.05;;
82760;SDS011;72498;42.022;21.444;2024-01-15T03:23:11;127.47;;;57.75;;
82760;SDS011;72498;42.022;21.444;2024-01-15T03:25:37;113.32;;;52.42;;
82760;SDS011;72498;42.022;21.444;2024-01-15T03:28:04;132.15;;;54.72;;
82760;SDS011;72498;42.022;21.444;2024-01-15T03:30:30;132.93;;;57.17;;
82760;SDS011;72498;42.022;21.444;2024-01-15T03:32:57;126.28;;;56.00;;
82760;SDS011;72498;42.022;21.444;2024-01-15T03:35:24;119.72;;;57.00;;
82760;SDS011;72498;42.022;21.444;2024-01-15T03:37:54;124.15;;;55.03;;
82760;SDS011;72498;42.022;21.444;2024-01-15T03:40:20;115.93;;;54.85;;
82760;SDS011;72498;42.022;21.444;2024-01-15T03:42:47;106.50;;;52.28;;
82760;SDS011;72498;42.022;21.444;2024-01-15T03:45:15;113.18;;;52.25;;
82760;SDS011;72498;42.022;21.444;2024-01-15T03:47:42;117.38;;;55.05;;
82760;SDS011;72498;42.022;21.444;2024-01-15T03:50:08;117.65;;;55.83;;
82760;SDS011;72498;42.022;21.444;2024-01-15T03:52:34;118.85;;;55.70;;
82760;SDS011;72498;42.022;21.444;2024-01-15T03:55:00;119.18;;;54.10;;
82760;SDS011;72498;42.022;21.444;2024-01-15T03:57:27;124.82;;;59.22;;
82760;SDS011;72498;42.022;21.444;2024-01-15T03:59:53;116.22;;;50.65;;
82760;SDS011;72498;42.022;21.444;2024-01-15T04:02:19;124.78;;;51.00;;
82760;SDS011;72498;42.022;21.444;2024-01-15T04:04:45;124.75;;;56.75;;
82760;SDS011;72498;42.022;21.444;2024-01-15T04:07:12;125.65;;;55.28;;
82760;SDS011;72498;42.022;21.444;2024-01-15T04:09:38;119.18;;;53.40;;
82760;SDS011;72498;42.022;21.444;2024-01-15T04:12:04;110.78;;;52.58;;
82760;SDS011;72498;42.022;21.444;2024-01-15T04:14:31;118.50;;;55.40;;
82760;SDS011;72498;42.022;21.444;2024-01-15T04:16:57;120.38;;;56.13;;
82760;SDS011;72498;42.022;21.444;2024-01-15T04:19:23;129.02;;;56.58;;
82760;SDS011;72498;42.022;21.444;2024-01-15T04:21:49;118.60;;;54.58;;
82760;SDS011;72498;42.022;21.444;2024-01-15T04:24:16;119.70;;;54.00;;
82760;SDS011;72498;42.022;21.444;2024-01-15T04:26:43;123.15;;;52.58;;
82760;SDS011;72498;42.022;21.444;2024-01-15T04:29:09;127.18;;;55.15;;
82760;SDS011;72498;42.022;21.444;2024-01-15T04:31:35;127.00;;;55.38;;
82760;SDS011;72498;42.022;21.444;2024-01-15T04:34:01;120.13;;;54.55;;
82760;SDS011;72498;42.022;21.444;2024-01-15T04:36:27;124.57;;;56.78;;
82760;SDS011;72498;42.022;21.444;2024-01-15T04:38:54;118.13;;;55.15;;
82760;SDS011;72498;42.022;21.444;2024-01-15T04:41:21;122.57;;;54.17;;
82760;SDS011;72498;42.022;21.444;2024-01-15T04:43:47;120.97;;;53.85;;
82760;SDS011;72498;42.022;21.444;2024-01-15T04:46:13;139.23;;;58.78;;
82760;SDS011;72498;42.022;21.444;2024-01-15T04:48:40;129.18;;;55.67;;
82760;SDS011;72498;42.022;21.444;2024-01-15T04:51:08;128.90;;;57.10;;
82760;SDS011;72498;42.022;21.444;2024-01-15T04:53:34;121.35;;;54.13;;
82760;SDS011;72498;42.022;21.444;2024-01-15T04:56:00;108.13;;;51.03;;
82760;SDS011;72498;42.022;21.444;2024-01-15T04:58:27;102.28;;;49.85;;
82760;SDS011;72498;42.022;21.444;2024-01-15T05:00:53;114.78;;;49.17;;
82760;SDS011;72498;42.022;21.444;2024-01-15T05:03:19;104.90;;;47.50;;
82760;SDS011;72498;42.022;21.444;2024-01-15T05:05:45;110.40;;;48.25;;
82760;SDS011;72498;42.022;21.444;2024-01-15T05:08:11;106.13;;;47.30;;
82760;SDS011;72498;42.022;21.444;2024-01-15T05:10:38;99.03;;;45.95;;
82760;SDS011;72498;42.022;21.444;2024-01-15T05:13:04;97.38;;;49.47;;
82760;SDS011;72498;42.022;21.444;2024-01-15T05:15:30;99.93;;;46.05;;
82760;SDS011;72498;42.022;21.444;2024-01-15T05:17:56;110.18;;;48.13;;
82760;SDS011;72498;42.022;21.444;2024-01-15T05:20:25;100.00;;;45.40;;
82760;SDS011;72498;42.022;21.444;2024-01-15T05:22:51;98.55;;;48.67;;
82760;SDS011;72498;42.022;21.444;2024-01-15T05:25:17;106.22;;;49.80;;
82760;SDS011;72498;42.022;21.444;2024-01-15T05:27:43;99.07;;;49.28;;
82760;SDS011;72498;42.022;21.444;2024-01-15T05:30:10;97.78;;;45.47;;
82760;SDS011;72498;42.022;21.444;2024-01-15T05:32:36;101.53;;;47.03;;
82760;SDS011;72498;42.022;21.444;2024-01-15T05:35:02;95.30;;;44.08;;
82760;SDS011;72498;42.022;21.444;2024-01-15T05:37:29;98.18;;;48.58;;
82760;SDS011;72498;42.022;21.444;2024-01-15T05:39:55;95.90;;;44.10;;
82760;SDS011;72498;42.022;21.444;2024-01-15T05:42:21;87.78;;;43.20;;
82760;SDS011;72498;42.022;21.444;2024-01-15T05:44:48;99.05;;;49.17;;
82760;SDS011;72498;42.022;21.444;2024-01-15T05:47:14;95.75;;;46.38;;
82760;SDS011;72498;42.022;21.444;2024-01-15T05:49:40;95.88;;;43.97;;
82760;SDS011;72498;42.022;21.444;2024-01-15T05:52:06;95.70;;;44.15;;
82760;SDS011;72498;42.022;21.444;2024-01-15T05:54:35;91.60;;;44.22;;
82760;SDS011;72498;42.022;21.444;2024-01-15T05:57:01;90.65;;;42.53;;
82760;SDS011;72498;42.022;21.444;2024-01-15T05:59:28;96.15;;;52.03;;
82760;SDS011;72498;42.022;21.444;2024-01-15T06:01:57;81.60;;;43.53;;
82760;SDS011;72498;42.022;21.444;2024-01-15T06:04:26;94.10;;;49.53;;
82760;SDS011;72498;42.022;21.444;2024-01-15T06:09:18;69.10;;;34.97;;
82760;SDS011;72498;42.022;21.444;2024-01-15T06:11:44;107.97;;;58.72;;
82760;SDS011;72498;42.022;21.444;2024-01-15T06:14:11;76.90;;;35.47;;
82760;SDS011;72498;42.022;21.444;2024-01-15T06:16:39;121.70;;;63.60;;
82760;SDS011;72498;42.022;21.444;2024-01-15T06:19:05;70.43;;;32.55;;
82760;SDS011;72498;42.022;21.444;2024-01-15T06:21:32;65.43;;;32.42;;
82760;SDS011;72498;42.022;21.444;2024-01-15T06:23:58;58.97;;;32.47;;
82760;SDS011;72498;42.022;21.444;2024-01-15T06:26:24;62.85;;;31.77;;
82760;SDS011;72498;42.022;21.444;2024-01-15T06:28:50;63.55;;;31.10;;
82760;SDS011;72498;42.022;21.444;2024-01-15T06:31:17;73.93;;;32.75;;
82760;SDS011;72498;42.022;21.444;2024-01-15T06:33:43;55.80;;;28.25;;
82760;SDS011;72498;42.022;21.444;2024-01-15T06:36:13;56.50;;;27.38;;
82760;SDS011;72498;42.022;21.444;2024-01-15T06:38:39;63.53;;;28.27;;
82760;SDS011;72498;42.022;21.444;2024-01-15T06:41:05;60.13;;;25.63;;
82760;SDS011;72498;42.022;21.444;2024-01-15T06:43:32;58.38;;;27.15;;
82760;SDS011;72498;42.022;21.444;2024-01-15T06:45:58;83.95;;;40.50;;
82760;SDS011;72498;42.022;21.444;2024-01-15T06:48:30;46.28;;;23.33;;
82760;SDS011;72498;42.022;21.444;2024-01-15T06:50:56;65.15;;;25.75;;
82760;SDS011;72498;42.022;21.444;2024-01-15T06:53:22;120.28;;;60.55;;
82760;SDS011;72498;42.022;21.444;2024-01-15T06:55:50;68.15;;;28.55;;
82760;SDS011;72498;42.022;21.444;2024-01-15T06:58:18;74.28;;;31.38;;
82760;SDS011;72498;42.022;21.444;2024-01-15T07:00:46;73.88;;;33.60;;
82760;SDS011;72498;42.022;21.444;2024-01-15T07:03:12;125.95;;;60.97;;
82760;SDS011;72498;42.022;21.444;2024-01-15T07:05:41;82.18;;;36.97;;
82760;SDS011;72498;42.022;21.444;2024-01-15T07:08:11;102.95;;;44.35;;
82760;SDS011;72498;42.022;21.444;2024-01-15T07:10:46;106.03;;;49.42;;
82760;SDS011;72498;42.022;21.444;2024-01-15T07:13:12;117.20;;;53.72;;
82760;SDS011;72498;42.022;21.444;2024-01-15T07:15:38;110.72;;;51.20;;
82760;SDS011;72498;42.022;21.444;2024-01-15T07:18:04;125.47;;;55.45;;
82760;SDS011;72498;42.022;21.444;2024-01-15T07:20:30;124.03;;;60.55;;
82760;SDS011;72498;42.022;21.444;2024-01-15T07:22:57;136.23;;;60.67;;
82760;SDS011;72498;42.022;21.444;2024-01-15T07:25:24;127.95;;;59.25;;
82760;SDS011;72498;42.022;21.444;2024-01-15T07:27:51;98.68;;;45.83;;
82760;SDS011;72498;42.022;21.444;2024-01-15T07:30:19;127.22;;;57.35;;
82760;SDS011;72498;42.022;21.444;2024-01-15T07:32:47;123.50;;;54.58;;
82760;SDS011;72498;42.022;21.444;2024-01-15T07:35:14;117.85;;;56.97;;
82760;SDS011;72498;42.022;21.444;2024-01-15T07:37:41;116.93;;;56.30;;
82760;SDS011;72498;42.022;21.444;2024-01-15T07:40:08;125.20;;;56.78;;
82760;SDS011;72498;42.022;21.444;2024-01-15T10:42:59;130.23;;;54.30;;
82760;SDS011;72498;42.022;21.444;2024-01-15T10:45:29;118.55;;;58.92;;
82760;SDS011;72498;42.022;21.444;2024-01-15T10:47:55;120.13;;;59.92;;
82760;SDS011;72498;42.022;21.444;2024-01-15T10:50:30;98.53;;;49.20;;
82760;SDS011;72498;42.022;21.444;2024-01-15T10:55:53;100.78;;;50.67;;
82760;SDS011;72498;42.022;21.444;2024-01-15T10:58:20;100.28;;;49.10;;
82760;SDS011;72498;42.022;21.444;2024-01-15T11:00:49;95.85;;;49.95;;
82760;SDS011;72498;42.022;21.444;2024-01-15T11:03:18;111.30;;;52.63;;
82760;SDS011;72498;42.022;21.444;2024-01-15T11:05:47;108.32;;;55.53;;
82760;SDS011;72498;42.022;21.444;2024-01-15T11:08:41;118.55;;;56.53;;
82760;SDS011;72498;42.022;21.444;2024-01-15T11:11:11;123.93;;;59.38;;
82760;SDS011;72498;42.022;21.444;2024-01-15T11:13:58;117.97;;;59.00;;
82760;SDS011;72498;42.022;21.444;2024-01-15T11:16:24;85.13;;;43.58;;
82760;SDS011;72498;42.022;21.444;2024-01-15T11:19:25;100.78;;;51.97;;
82760;SDS011;72498;42.022;21.444;2024-01-15T11:21:52;104.35;;;55.63;;
82760;SDS011;72498;42.022;21.444;2024-01-15T11:24:37;103.07;;;51.33;;
82760;SDS011;72498;42.022;21.444;2024-01-15T11:27:07;115.65;;;54.78;;
82760;SDS011;72498;42.022;21.444;2024-01-15T11:29:35;145.57;;;81.93;;
82760;SDS011;72498;42.022;21.444;2024-01-15T11:32:02;90.32;;;45.38;;
82760;SDS011;72498;42.022;21.444;2024-01-15T11:37:08;85.47;;;42.67;;
82760;SDS011;72498;42.022;21.444;2024-01-15T11:39:41;94.10;;;44.60;;
82760;SDS011;72498;42.022;21.444;2024-01-15T11:42:11;99.05;;;53.72;;
82760;SDS011;72498;42.022;21.444;2024-01-15T11:44:46;89.82;;;42.75;;
82760;SDS011;72498;42.022;21.444;2024-01-15T11:47:15;114.78;;;56.80;;
82760;SDS011;72498;42.022;21.444;2024-01-15T11:50:01;103.05;;;55.92;;
82760;SDS011;72498;42.022;21.444;2024-01-15T11:52:33;110.20;;;59.50;;
82760;SDS011;72498;42.022;21.444;2024-01-15T11:55:10;91.97;;;41.97;;
82760;SDS011;72498;42.022;21.444;2024-01-15T11:57:41;105.93;;;47.58;;
82760;SDS011;72498;42.022;21.444;2024-01-15T12:00:11;72.85;;;35.67;;
82760;SDS011;72498;42.022;21.444;2024-01-15T12:02:47;73.97;;;37.17;;
82760;SDS011;72498;42.022;21.444;2024-01-15T12:05:36;85.20;;;42.20;;
82760;SDS011;72498;42.022;21.444;2024-01-15T12:08:08;81.95;;;39.58;;
82760;SDS011;72498;42.022;21.444;2024-01-15T12:10:40;94.75;;;44.97;;
82760;SDS011;72498;42.022;21.444;2024-01-15T12:13:10;92.28;;;44.45;;
82760;SDS011;72498;42.022;21.444;2024-01-15T12:15:40;96.65;;;42.47;;
82760;SDS011;72498;42.022;21.444;2024-01-15T12:18:18;88.88;;;41.83;;
82760;SDS011;72498;42.022;21.444;2024-01-15T12:20:50;89.43;;;46.17;;
82760;SDS011;72498;42.022;21.444;2024-01-15T12:23:20;91.25;;;43.75;;
82760;SDS011;72498;42.022;21.444;2024-01-15T12:25:52;85.28;;;43.60;;
82760;SDS011;72498;42.022;21.444;2024-01-15T12:28:23;97.28;;;49.88;;
82760;SDS011;72498;42.022;21.444;2024-01-15T12:30:49;107.55;;;52.13;;
82760;SDS011;72498;42.022;21.444;2024-01-15T12:33:21;115.70;;;57.03;;
82760;SDS011;72498;42.022;21.444;2024-01-15T12:35:47;101.93;;;51.40;;
82760;SDS011;72498;42.022;21.444;2024-01-15T12:38:14;105.32;;;53.92;;
82760;SDS011;72498;42.022;21.444;2024-01-15T12:40:43;116.55;;;54.25;;
82760;SDS011;72498;42.022;21.444;2024-01-15T12:43:17;99.03;;;49.40;;
82760;SDS011;72498;42.022;21.444;2024-01-15T12:45:46;97.38;;;45.75;;
82760;SDS011;72498;42.022;21.444;2024-01-15T12:48:12;99.93;;;50.55;;
82760;SDS011;72498;42.022;21.444;2024-01-15T12:50:43;101.82;;;51.60;;
82760;SDS011;72498;42.022;21.444;2024-01-15T12:53:13;103.60;;;52.90;;
82760;SDS011;72498;42.022;21.444;2024-01-15T12:55:48;100.10;;;49.55;;
82760;SDS011;72498;42.022;21.444;2024-01-15T12:58:31;98.93;;;52.05;;
82760;SDS011;72498;42.022;21.444;2024-01-15T13:00:57;92.78;;;49.53;;
82760;SDS011;72498;42.022;21.444;2024-01-15T13:03:26;89.03;;;48.15;;
82760;SDS011;72498;42.022;21.444;2024-01-15T13:05:52;87.63;;;44.22;;
82760;SDS011;72498;42.022;21.444;2024-01-15T13:08:19;87.43;;;45.33;;
82760;SDS011;72498;42.022;21.444;2024-01-15T13:10:49;82.40;;;41.97;;
82760;SDS011;72498;42.022;21.444;2024-01-15T13:13:24;103.53;;;46.42;;
82760;SDS011;72498;42.022;21.444;2024-01-15T13:15:51;79.82;;;42.92;;
82760;SDS011;72498;42.022;21.444;2024-01-15T13:18:29;89.75;;;41.80;;
82760;SDS011;72498;42.022;21.444;2024-01-15T13:20:56;79.72;;;43.45;;
82760;SDS011;72498;42.022;21.444;2024-01-15T16:04:54;127.03;;;58.30;;
82760;SDS011;72498;42.022;21.444;2024-01-15T16:07:27;131.00;;;57.95;;
82760;SDS011;72498;42.022;21.444;2024-01-15T16:17:50;119.57;;;60.45;;
82760;SDS011;72498;42.022;21.444;2024-01-15T16:20:23;122.63;;;59.70;;
82760;SDS011;72498;42.022;21.444;2024-01-15T16:22:51;119.57;;;56.60;;
82760;SDS011;72498;42.022;21.444;2024-01-15T16:25:20;107.93;;;47.65;;
82760;SDS011;72498;42.022;21.444;2024-01-15T16:28:18;81.15;;;41.25;;
82760;SDS011;72498;42.022;21.444;2024-01-15T16:30:47;92.53;;;46.15;;
82760;SDS011;72498;42.022;21.444;2024-01-15T16:35:54;90.75;;;43.28;;
82760;SDS011;72498;42.022;21.444;2024-01-15T16:41:11;91.68;;;43.78;;
82760;SDS011;72498;42.022;21.444;2024-01-15T16:43:46;87.03;;;41.50;;
82760;SDS011;72498;42.022;21.444;2024-01-15T16:46:14;89.75;;;43.17;;
82760;SDS011;72498;42.022;21.444;2024-01-15T16:48:44;101.28;;;48.38;;
82760;SDS011;72498;42.022;21.444;2024-01-15T16:51:13;101.65;;;46.40;;
82760;SDS011;72498;42.022;21.444;2024-01-15T16:56:51;92.97;;;45.28;;
82760;SDS011;72498;42.022;21.444;2024-01-15T16:59:44;99.75;;;45.50;;
82760;SDS011;72498;42.022;21.444;2024-01-15T17:02:36;97.47;;;44.10;;
82760;SDS011;72498;42.022;21.444;2024-01-15T17:15:49;101.93;;;49.45;;
82760;SDS011;72498;42.022;21.444;2024-01-15T17:18:18;105.43;;;49.55;;
82760;SDS011;72498;42.022;21.444;2024-01-15T17:20:49;104.90;;;48.63;;
82760;SDS011;72498;42.022;21.444;2024-01-15T17:23:28;107.75;;;48.55;;
82760;SDS011;72498;42.022;21.444;2024-01-15T18:39:10;120.18;;;57.78;;
82760;SDS011;72498;42.022;21.444;2024-01-15T18:41:39;123.78;;;57.00;;
82760;SDS011;72498;42.022;21.444;2024-01-15T18:44:23;122.47;;;59.78;;
82760;SDS011;72498;42.022;21.444;2024-01-15T18:47:05;134.23;;;61.17;;
82760;SDS011;72498;42.022;21.444;2024-01-15T18:49:43;133.80;;;64.07;;
82760;SDS011;72498;42.022;21.444;2024-01-15T18:52:12;139.48;;;64.60;;
82760;SDS011;72498;42.022;21.444;2024-01-15T18:54:39;141.68;;;64.55;;
82760;SDS011;72498;42.022;21.444;2024-01-15T18:57:06;132.27;;;66.05;;
82760;SDS011;72498;42.022;21.444;2024-01-15T18:59:37;133.98;;;65.75;;
82760;SDS011;72498;42.022;21.444;2024-01-15T19:02:06;132.02;;;63.15;;
82760;SDS011;72498;42.022;21.444;2024-01-15T19:04:35;130.25;;;61.45;;
82760;SDS011;72498;42.022;21.444;2024-01-15T19:07:01;128.80;;;62.78;;
82760;SDS011;72498;42.022;21.444;2024-01-15T19:09:31;123.65;;;61.28;;
82760;SDS011;72498;42.022;21.444;2024-01-15T19:50:00;138.00;;;66.25;;
82760;SDS011;72498;42.022;21.444;2024-01-15T19:52:35;151.65;;;69.95;;
82760;SDS011;72498;42.022;21.444;2024-01-15T20:44:34;215.85;;;95.53;;
82760;SDS011;72498;42.022;21.444;2024-01-15T20:49:43;236.23;;;96.88;;
82760;SDS011;72498;42.022;21.444;2024-01-15T21:26:29;237.20;;;105.82;;
82760;SDS011;72498;42.022;21.444;2024-01-15T22:41:29;219.20;;;105.93;;
82760;SDS011;72498;42.022;21.444;2024-01-15T22:43:59;225.55;;;110.30;;
82760;SDS011;72498;42.022;21.444;2024-01-15T22:46:48;214.60;;;105.30;;
82760;SDS011;72498;42.022;21.444;2024-01-15T22:49:24;217.30;;;104.78;;
82760;SDS011;72498;42.022;21.444;2024-01-15T22:51:50;217.15;;;107.40;;
82760;SDS011;72498;42.022;21.444;2024-01-15T22:54:19;226.45;;;105.55;;
82760;SDS011;72498;42.022;21.444;2024-01-15T22:56:47;210.80;;;99.93;;
82760;SDS011;72498;42.022;21.444;2024-01-15T22:59:25;210.88;;;97.55;;
82760;SDS011;72498;42.022;21.444;2024-01-15T23:02:02;199.98;;;94.30;;
82760;SDS011;72498;42.022;21.444;2024-01-15T23:07:31;191.93;;;94.50;;
82760;SDS011;72498;42.022;21.444;2024-01-15T23:10:38;199.50;;;94.57;;
82760;SDS011;72498;42.022;21.444;2024-01-15T23:13:40;216.02;;;103.82;;
82760;SDS011;72498;42.022;21.444;2024-01-15T23:16:17;202.55;;;97.93;;
82760;SDS011;72498;42.022;21.444;2024-01-15T23:18:44;214.75;;;107.63;;
82760;SDS011;72498;42.022;21.444;2024-01-15T23:21:19;221.52;;;98.15;;
82760;SDS011;72498;42.022;21.444;2024-01-15T23:23:51;220.80;;;100.32;;
82760;SDS011;72498;42.022;21.444;2024-01-15T23:26:18;221.27;;;99.18;;
82760;SDS011;72498;42.022;21.444;2024-01-15T23:31:25;204.48;;;94.82;;
82760;SDS011;72498;42.022;21.444;2024-01-15T23:33:58;202.13;;;98.85;;
82760;SDS011;72498;42.022;21.444;2024-01-15T23:36:25;218.07;;;104.78;;
82760;SDS011;72498;42.022;21.444;2024-01-15T23:38:52;219.13;;;103.70;;
82760;SDS011;72498;42.022;21.444;2024-01-15T23:41:23;213.23;;;103.95;;
82760;SDS011;72498;42.022;21.444;2024-01-15T23:43:50;218.40;;;102.80;;
82760;SDS011;72498;42.022;21.444;2024-01-15T23:46:23;217.18;;;100.53;;
82760;SDS011;72498;42.022;21.444;2024-01-15T23:49:04;211.65;;;101.93;;
82760;SDS011;72498;42.022;21.444;2024-01-15T23:52:11;207.32;;;98.97;;
82760;SDS011;72498;42.022;21.444;2024-01-15T23:54:40;224.88;;;106.28;;
82760;SDS011;72498;42.022;21.444;2024-01-15T23:57:06;214.38;;;105.32;;
